createdAt,value
2023-05-08T00:02:52.341Z,100835.59
2023-05-08T00:07:55.574Z,100835.59
2023-05-08T00:12:57.505Z,100833.75
2023-05-08T00:17:59.251Z,100840.94
2023-05-08T00:23:02.306Z,100847.41
2023-05-08T00:28:04.030Z,100843.25
2023-05-08T00:33:05.702Z,100832.72
2023-05-08T00:38:08.785Z,100836.22
2023-05-08T00:43:10.407Z,100838.88
2023-05-08T00:48:12.436Z,100843.81
2023-05-08T00:53:16.640Z,100843.00
2023-05-08T00:58:19.456Z,100842.16
2023-05-08T01:03:22.308Z,100844.16
2023-05-08T01:08:25.435Z,100848.94
2023-05-08T01:13:35.834Z,100840.41
2023-05-08T01:18:45.731Z,100847.88
2023-05-08T01:24:19.138Z,100847.31
2023-05-08T01:29:58.040Z,100862.06
2023-05-08T01:35:09.980Z,100862.41
2023-05-08T01:40:21.613Z,100861.38
2023-05-08T01:45:29.085Z,100862.53
2023-05-08T01:50:36.490Z,100869.38
2023-05-08T01:55:40.221Z,100866.91
2023-05-08T02:00:44.119Z,100865.19
2023-05-08T02:05:49.182Z,100874.19
2023-05-08T02:10:52.065Z,100871.00
2023-05-08T02:15:56.121Z,100881.78
2023-05-08T02:21:00.767Z,100893.28
2023-05-08T02:26:04.672Z,100901.19
2023-05-08T02:31:07.958Z,100903.56
2023-05-08T02:36:13.696Z,100895.84
2023-05-08T02:41:18.046Z,100905.00
2023-05-08T02:46:25.562Z,100908.78
2023-05-08T02:51:43.838Z,100904.00
2023-05-08T02:56:56.042Z,100905.88
2023-05-08T03:02:06.706Z,100908.53
2023-05-08T03:07:10.670Z,100901.53
2023-05-08T03:12:15.048Z,100897.34
2023-05-08T03:17:18.773Z,100888.13
2023-05-08T03:22:23.914Z,100891.63
2023-05-08T03:27:28.717Z,100895.28
2023-05-08T03:32:33.131Z,100915.59
2023-05-08T03:37:36.411Z,100907.38
2023-05-08T03:42:40.028Z,100908.88
2023-05-08T03:47:44.417Z,100918.16
2023-05-08T03:52:48.479Z,100909.78
2023-05-08T03:57:57.801Z,100911.16
2023-05-08T04:03:13.903Z,100917.88
2023-05-08T04:08:20.161Z,100919.69
2023-05-08T04:13:28.308Z,100929.81
2023-05-08T04:18:31.236Z,100917.59
2023-05-08T04:23:36.210Z,100922.94
2023-05-08T04:28:38.745Z,100924.63
2023-05-08T04:33:45.085Z,100926.59
2023-05-08T04:38:48.175Z,100930.91
2023-05-08T04:43:50.046Z,100934.91
2023-05-08T04:48:51.733Z,100941.78
2023-05-08T04:53:54.724Z,100934.78
2023-05-08T04:58:56.373Z,100954.66
2023-05-08T05:03:58.072Z,100962.50
2023-05-08T05:09:03.249Z,100967.56
2023-05-08T05:14:04.895Z,100970.38
2023-05-08T05:19:06.594Z,100970.91
2023-05-08T05:24:09.743Z,100971.03
2023-05-08T05:29:11.545Z,100963.88
2023-05-08T05:34:13.254Z,100969.31
2023-05-08T05:39:16.295Z,100975.19
2023-05-08T05:44:23.103Z,100981.22
2023-05-08T05:49:28.304Z,100976.56
2023-05-08T05:54:36.289Z,100980.38
2023-05-08T05:59:40.486Z,100988.94
2023-05-08T06:04:46.220Z,100986.53
2023-05-08T06:09:55.097Z,100989.78
2023-05-08T06:15:09.980Z,100981.69
2023-05-08T06:20:12.348Z,100977.91
2023-05-08T06:25:15.547Z,100983.22
2023-05-08T06:30:17.290Z,100982.63
2023-05-08T06:35:18.976Z,100991.44
2023-05-08T06:40:22.415Z,100989.91
2023-05-08T06:45:24.133Z,100993.81
2023-05-08T06:50:25.854Z,100989.09
2023-05-08T06:55:28.969Z,100985.97
2023-05-08T07:00:30.642Z,100983.28
2023-05-08T07:05:32.339Z,100987.22
2023-05-08T07:10:35.448Z,100987.19
2023-05-08T07:15:40.065Z,100979.06
2023-05-08T07:20:41.718Z,100985.06
2023-05-08T07:25:44.730Z,100985.16
2023-05-08T07:30:46.430Z,100987.28
2023-05-08T07:35:50.522Z,100989.81
2023-05-08T07:40:53.504Z,100985.84
2023-05-08T07:45:55.120Z,100991.19
2023-05-08T07:50:56.805Z,100996.22
2023-05-08T07:55:59.783Z,100988.38
2023-05-08T08:01:01.426Z,100999.59
2023-05-08T08:06:03.365Z,100996.88
2023-05-08T08:11:06.749Z,101001.19
2023-05-08T08:16:08.434Z,101009.81
2023-05-08T08:21:10.166Z,101012.22
2023-05-08T08:26:14.653Z,101003.81
2023-05-08T08:31:19.806Z,101006.75
2023-05-08T08:36:23.907Z,101007.31
2023-05-08T08:41:26.934Z,101005.50
2023-05-08T08:46:28.665Z,101015.16
2023-05-08T08:51:33.367Z,101009.41
2023-05-08T08:56:40.859Z,101009.22
2023-05-08T09:07:15.071Z,101011.91
2023-05-08T09:12:24.741Z,101006.69
2023-05-08T09:17:37.488Z,101015.09
2023-05-08T09:22:47.064Z,101005.69
2023-05-08T09:27:54.859Z,101012.25
2023-05-08T09:33:05.697Z,101012.94
2023-05-08T09:38:10.563Z,101011.09
2023-05-08T09:43:25.153Z,101012.94
2023-05-08T09:48:37.184Z,101013.34
2023-05-08T09:53:39.077Z,101016.97
2023-05-08T09:58:46.564Z,101011.09
2023-05-08T10:09:10.020Z,101015.47
2023-05-08T10:14:18.964Z,101013.22
2023-05-08T10:19:28.225Z,101015.59
2023-05-08T10:24:33.537Z,101017.66
2023-05-08T10:29:47.217Z,101017.66
2023-05-08T10:35:00.306Z,101011.94
2023-05-08T10:40:03.110Z,101011.63
2023-05-08T10:45:07.811Z,101013.59
2023-05-08T10:50:22.341Z,101005.63
2023-05-08T10:55:32.512Z,101000.00
2023-05-08T11:01:16.364Z,101008.81
2023-05-08T11:06:38.852Z,100997.16
2023-05-08T11:11:45.102Z,100994.66
2023-05-08T11:17:13.587Z,100998.63
2023-05-08T11:22:26.546Z,100996.94
2023-05-08T11:28:20.463Z,100994.28
2023-05-08T11:33:39.895Z,100988.09
2023-05-08T11:39:18.102Z,100988.94
2023-05-08T11:44:41.862Z,100987.28
2023-05-08T11:55:26.370Z,100997.06
2023-05-08T12:00:30.540Z,100999.16
2023-05-08T12:05:36.646Z,101001.56
2023-05-08T12:10:41.460Z,100996.94
2023-05-08T12:15:43.469Z,101000.28
2023-05-08T12:20:46.758Z,101001.13
2023-05-08T12:25:53.789Z,100989.34
2023-05-08T12:30:56.917Z,100980.34
2023-05-08T12:36:00.960Z,100986.81
2023-05-08T12:41:03.266Z,100986.34
2023-05-08T12:46:12.681Z,100992.38
2023-05-08T12:51:15.858Z,100985.94
2023-05-08T12:56:22.093Z,100982.81
2023-05-08T13:01:25.503Z,100981.97
2023-05-08T13:06:28.995Z,100982.41
2023-05-08T13:11:31.690Z,100980.13
2023-05-08T13:16:42.331Z,100979.66
2023-05-08T13:21:45.685Z,100975.19
2023-05-08T13:26:47.366Z,100977.69
2023-05-08T13:31:49.089Z,100969.69
2023-05-08T13:36:52.261Z,100971.53
2023-05-08T13:41:53.955Z,100961.19
2023-05-08T13:46:55.668Z,100960.50
2023-05-08T13:51:58.734Z,100958.66
2023-05-08T13:57:01.206Z,100957.84
2023-05-08T14:02:02.949Z,100957.66
2023-05-08T14:07:06.466Z,100952.66
2023-05-08T14:12:08.196Z,100961.75
2023-05-08T14:17:09.982Z,100953.78
2023-05-08T14:22:13.091Z,100944.66
2023-05-08T14:27:14.812Z,100944.66
2023-05-08T14:32:16.489Z,100940.44
2023-05-08T14:37:19.944Z,100938.09
2023-05-08T14:42:23.613Z,100936.41
2023-05-08T14:47:25.736Z,100923.19
2023-05-08T14:52:28.778Z,100922.56
2023-05-08T14:57:30.414Z,100924.47
2023-05-08T15:02:32.153Z,100920.38
2023-05-08T15:07:45.636Z,100913.63
2023-05-08T15:12:47.414Z,100907.38
2023-05-08T15:17:49.103Z,100910.72
2023-05-08T15:22:54.097Z,100905.63
2023-05-08T15:27:56.780Z,100900.84
2023-05-08T15:32:59.311Z,100899.09
2023-05-08T15:38:05.138Z,100896.88
2023-05-08T15:43:06.836Z,100898.94
2023-05-08T15:48:08.585Z,100901.38
2023-05-08T15:53:11.624Z,100900.94
2023-05-08T15:58:13.246Z,100898.50
2023-05-08T16:03:14.978Z,100899.63
2023-05-08T16:08:18.802Z,100899.41
2023-05-08T16:13:20.429Z,100899.88
2023-05-08T16:18:22.156Z,100902.22
2023-05-08T16:23:25.284Z,100896.28
2023-05-08T16:28:26.938Z,100895.25
2023-05-08T16:33:28.675Z,100899.03
2023-05-08T16:38:31.798Z,100900.94
2023-05-08T16:43:33.483Z,100893.47
2023-05-08T16:48:35.247Z,100895.97
2023-05-08T16:53:38.286Z,100895.75
2023-05-08T16:58:40.213Z,100884.88
2023-05-08T17:03:43.165Z,100886.09
2023-05-08T17:08:47.594Z,100881.44
2023-05-08T17:13:49.231Z,100883.72
2023-05-08T17:18:50.857Z,100885.88
2023-05-08T17:23:53.885Z,100890.19
2023-05-08T17:28:55.522Z,100890.75
2023-05-08T17:33:57.227Z,100885.69
2023-05-08T17:39:03.061Z,100886.03
2023-05-08T17:44:04.969Z,100883.22
2023-05-08T17:49:06.638Z,100883.72
2023-05-08T17:54:09.627Z,100881.38
2023-05-08T17:59:11.435Z,100876.88
2023-05-08T18:04:13.196Z,100885.69
2023-05-08T18:09:16.258Z,100885.88
2023-05-08T18:14:17.828Z,100894.84
2023-05-08T18:19:19.474Z,100902.00
2023-05-08T18:24:22.507Z,100897.66
2023-05-08T18:29:24.161Z,100889.53
2023-05-08T18:34:25.829Z,100890.50
2023-05-08T18:39:28.969Z,100893.47
2023-05-08T18:44:30.680Z,100897.44
2023-05-08T18:49:32.298Z,100901.22
2023-05-08T18:54:35.328Z,100889.91
2023-05-08T18:59:37.170Z,100887.56
2023-05-08T19:04:39.880Z,100889.53
2023-05-08T19:09:42.983Z,100889.94
2023-05-08T19:14:47.539Z,100882.25
2023-05-08T19:19:49.911Z,100878.22
2023-05-08T19:24:53.043Z,100880.34
2023-05-08T19:29:55.174Z,100881.09
2023-05-08T19:34:56.821Z,100882.94
2023-05-08T19:39:59.892Z,100876.25
2023-05-08T19:45:01.542Z,100881.72
2023-05-08T19:50:05.111Z,100880.78
2023-05-08T19:55:08.816Z,100888.34
2023-05-08T20:00:11.784Z,100894.78
2023-05-08T20:05:31.137Z,100888.91
2023-05-08T20:10:34.211Z,100890.06
2023-05-08T20:15:36.112Z,100885.03
2023-05-08T20:20:37.814Z,100888.13
2023-05-08T20:25:41.245Z,100880.47
2023-05-08T20:30:42.943Z,100888.44
2023-05-08T20:35:44.813Z,100896.03
2023-05-08T20:40:47.962Z,100892.81
2023-05-08T20:45:49.599Z,100894.94
2023-05-08T20:50:51.334Z,100891.72
2023-05-08T20:56:01.176Z,100889.66
2023-05-08T21:01:03.475Z,100888.38
2023-05-08T21:06:05.378Z,100898.09
2023-05-08T21:11:08.480Z,100883.09
2023-05-08T21:16:10.235Z,100886.66
2023-05-08T21:21:15.694Z,100888.41
2023-05-08T21:26:18.613Z,100886.91
2023-05-08T21:31:20.570Z,100877.69
2023-05-08T21:36:22.367Z,100878.69
2023-05-08T21:41:25.374Z,100865.91
2023-05-08T21:46:27.092Z,100859.75
2023-05-08T21:51:28.770Z,100855.78
2023-05-08T21:56:31.726Z,100855.56
2023-05-08T22:01:33.515Z,100844.69
2023-05-08T22:06:35.216Z,100846.53
2023-05-08T22:11:38.264Z,100846.53
2023-05-08T22:16:39.969Z,100841.66
2023-05-08T22:21:42.310Z,100827.53
2023-05-08T22:26:45.376Z,100837.88
2023-05-08T22:31:47.014Z,100831.75
2023-05-08T22:36:48.707Z,100830.59
2023-05-08T22:41:51.772Z,100817.63
2023-05-08T22:46:53.478Z,100823.63
2023-05-08T22:51:55.265Z,100811.63
2023-05-08T22:56:58.336Z,100817.63
2023-05-08T23:01:59.922Z,100809.81
2023-05-08T23:07:02.010Z,100801.16
2023-05-08T23:12:05.679Z,100800.97
2023-05-08T23:17:07.310Z,100791.03
2023-05-08T23:22:09.038Z,100780.41
2023-05-08T23:27:12.090Z,100780.81
2023-05-08T23:32:14.468Z,100763.22
2023-05-08T23:37:16.107Z,100758.72
2023-05-08T23:42:20.331Z,100762.78
2023-05-08T23:47:22.004Z,100757.34
2023-05-08T23:52:23.618Z,100752.13
2023-05-08T23:57:26.773Z,100751.84
